Time;durP1;ratioP1;P1;durP2;ratioP2;P2;SDS_P1;SDS_P2;PMS_P1;PMS_P2;Temp;Humidity;BMP_temperature;BMP_pressure;BME280_temperature;BME280_humidity;BME280_pressure;Samples;Min_cycle;Max_cycle;Signal;HPM_P1;HPM_P2
2024/01/18 00:01:51;;;;;;;32.10;16.10;;;;;;;-3.42;100.00;95775.59;6107873;19;20349;-71
2024/01/18 00:03:52;;;;;;;31.17;15.90;;;;;;;-3.42;100.00;95775.59;6110995;19;20074;-72
2024/01/18 00:05:52;;;;;;;32.50;15.82;;;;;;;-3.42;100.00;95783.72;6109282;19;20036;-72
2024/01/18 00:07:52;;;;;;;30.73;14.52;;;;;;;-3.39;100.00;95784.94;6111113;19;20007;-72
2024/01/18 00:09:52;;;;;;;33.10;16.50;;;;;;;-3.37;100.00;95792.69;6110817;19;20034;-72
2024/01/18 00:11:53;;;;;;;37.78;18.33;;;;;;;-3.35;100.00;95796.59;6111370;19;20463;-72
2024/01/18 00:13:53;;;;;;;35.08;16.27;;;;;;;-3.34;100.00;95805.50;6110940;19;20082;-72
2024/01/18 00:15:53;;;;;;;34.88;17.67;;;;;;;-3.35;100.00;95796.59;6108485;19;20006;-72
2024/01/18 00:17:54;;;;;;;32.08;17.38;;;;;;;-3.32;100.00;95795.09;6109472;19;20018;-72
2024/01/18 00:19:54;;;;;;;31.50;16.65;;;;;;;-3.27;100.00;95794.84;6110888;19;20025;-72
2024/01/18 00:21:55;;;;;;;36.20;16.15;;;;;;;-3.27;100.00;95801.03;6110354;19;20015;-72
2024/01/18 00:23:55;;;;;;;35.28;16.73;;;;;;;-3.23;100.00;95811.91;6111153;19;20002;-72
2024/01/18 00:25:55;;;;;;;36.58;16.83;;;;;;;-3.21;100.00;95813.16;6107841;19;20006;-72
2024/01/18 00:27:55;;;;;;;34.22;16.83;;;;;;;-3.20;100.00;95806.59;6110239;19;20048;-72
2024/01/18 00:29:56;;;;;;;30.83;15.85;;;;;;;-3.15;100.00;95814.41;6109307;19;20700;-72
2024/01/18 00:31:56;;;;;;;29.15;14.52;;;;;;;-3.16;100.00;95820.97;6110661;19;20015;-72
2024/01/18 00:33:59;;;;;;;33.25;15.98;;;;;;;-3.05;100.00;95818.50;6111046;19;20011;-72
2024/01/18 00:35:59;;;;;;;33.17;15.48;;;;;;;-3.07;100.00;95823.47;6109004;19;20003;-72
2024/01/18 00:38:00;;;;;;;33.65;16.00;;;;;;;-3.08;100.00;95826.53;6107277;19;20321;-72
2024/01/18 00:40:00;;;;;;;31.65;15.85;;;;;;;-3.09;100.00;95820.34;6108529;19;20889;-72
2024/01/18 00:42:00;;;;;;;32.65;14.88;;;;;;;-3.11;100.00;95828.81;6108459;19;20009;-72
2024/01/18 00:44:01;;;;;;;31.88;14.68;;;;;;;-3.11;100.00;95833.44;6108703;19;20455;-72
2024/01/18 00:46:05;;;;;;;30.67;15.13;;;;;;;-3.13;100.00;95833.81;6109733;19;20023;-72
2024/01/18 00:48:06;;;;;;;34.95;15.95;;;;;;;-3.11;100.00;95838.84;6097451;19;20003;-72
2024/01/18 00:50:06;;;;;;;31.23;15.90;;;;;;;-3.11;100.00;95842.34;6108301;19;20026;-72
2024/01/18 00:52:07;;;;;;;29.13;14.57;;;;;;;-3.11;100.00;95850.44;6108331;19;20009;-72
2024/01/18 00:54:07;;;;;;;29.50;16.60;;;;;;;-3.12;100.00;95846.19;6107311;19;20007;-72
2024/01/18 00:56:11;;;;;;;30.02;14.88;;;;;;;-3.06;100.00;95852.13;6108140;19;20050;-72
2024/01/18 00:58:11;;;;;;;32.10;16.27;;;;;;;-3.06;100.00;95848.59;6108466;19;19999;-72
2024/01/18 01:00:13;;;;;;;35.13;16.20;;;;;;;-3.03;100.00;95856.81;6108274;19;20472;-72
2024/01/18 01:02:13;;;;;;;29.43;16.87;;;;;;;-3.01;100.00;95870.75;6109679;19;20348;-72
2024/01/18 01:04:13;;;;;;;36.53;15.90;;;;;;;-3.00;100.00;95874.25;6106535;19;20066;-72
2024/01/18 01:06:14;;;;;;;34.33;16.85;;;;;;;-3.00;100.00;95872.31;6107476;19;20011;-72
2024/01/18 01:08:14;;;;;;;36.63;16.60;;;;;;;-3.00;100.00;95876.94;6109335;19;20020;-72
2024/01/18 01:10:15;;;;;;;43.10;17.38;;;;;;;-3.01;100.00;95881.56;6108108;19;20013;-72
2024/01/18 01:12:16;;;;;;;35.58;16.13;;;;;;;-2.97;100.00;95887.06;6107453;19;20078;-72
2024/01/18 01:14:16;;;;;;;36.05;16.83;;;;;;;-3.00;100.00;95879.66;6107213;19;20477;-72
2024/01/18 01:16:16;;;;;;;42.63;17.88;;;;;;;-2.97;100.00;95876.25;6108478;19;20026;-72
2024/01/18 01:18:16;;;;;;;33.45;16.35;;;;;;;-2.94;100.00;95889.06;6108535;19;19994;-72
2024/01/18 01:20:17;;;;;;;34.05;17.50;;;;;;;-2.93;100.00;95890.63;6109099;19;20014;-72
2024/01/18 01:22:17;;;;;;;33.22;16.33;;;;;;;-2.91;100.00;95907.28;6108200;19;19999;-72
2024/01/18 01:24:17;;;;;;;32.33;16.58;;;;;;;-2.89;100.00;95913.16;6107371;19;20005;-72
2024/01/18 01:26:18;;;;;;;36.65;17.88;;;;;;;-2.88;100.00;95907.38;6108276;19;20368;-72
2024/01/18 01:28:18;;;;;;;35.67;16.77;;;;;;;-2.79;100.00;95914.53;6108019;19;20002;-72
2024/01/18 01:30:18;;;;;;;36.60;17.45;;;;;;;-2.79;100.00;95915.31;6107969;19;20335;-72
2024/01/18 01:32:19;;;;;;;32.58;15.57;;;;;;;-2.72;100.00;95914.69;6108419;19;20010;-72
2024/01/18 01:34:19;;;;;;;32.35;14.73;;;;;;;-2.71;100.00;95929.78;6108125;19;20459;-72
2024/01/18 01:36:19;;;;;;;26.13;13.18;;;;;;;-2.76;100.00;95940.88;6108987;19;20009;-72
2024/01/18 01:38:19;;;;;;;25.25;12.38;;;;;;;-2.78;100.00;95946.63;6106091;19;19999;-72
2024/01/18 01:40:20;;;;;;;23.33;11.77;;;;;;;-2.77;100.00;95953.63;6108114;19;19998;-72
2024/01/18 01:42:20;;;;;;;28.70;13.15;;;;;;;-2.75;100.00;95953.25;6108989;19;20039;-72
2024/01/18 01:44:20;;;;;;;27.70;14.38;;;;;;;-2.77;100.00;95953.63;6107292;19;20958;-72
2024/01/18 01:46:21;;;;;;;29.65;14.25;;;;;;;-2.73;100.00;95959.09;6108981;19;20034;-72
2024/01/18 01:48:21;;;;;;;33.65;14.05;;;;;;;-2.74;100.00;95954.81;6098182;19;20029;-72
2024/01/18 01:50:22;;;;;;;31.77;15.43;;;;;;;-2.73;100.00;95965.31;6093965;19;20038;-72
2024/01/18 01:52:24;;;;;;;30.20;15.63;;;;;;;-2.79;100.00;95964.00;6094357;19;20597;-72
2024/01/18 01:54:29;;;;;;;33.58;15.63;;;;;;;-2.83;100.00;95969.31;6093029;19;20002;-72
2024/01/18 01:56:31;;;;;;;32.60;15.25;;;;;;;-2.83;100.00;95969.31;6093373;19;20007;-71
2024/01/18 01:58:31;;;;;;;34.17;16.17;;;;;;;-2.84;100.00;95969.69;6094406;19;20002;-72
2024/01/18 02:00:32;;;;;;;24.13;13.20;;;;;;;-2.74;100.00;95966.44;6093060;19;20050;-72
2024/01/18 02:02:34;;;;;;;29.27;14.70;;;;;;;-2.79;100.00;95964.00;6093499;19;20455;-72
2024/01/18 02:04:35;;;;;;;30.97;15.00;;;;;;;-2.84;100.00;95953.44;6092865;19;20003;-72
2024/01/18 02:06:36;;;;;;;31.67;15.32;;;;;;;-2.86;100.00;95958.44;6093371;19;20255;-72
2024/01/18 02:08:36;;;;;;;29.13;13.38;;;;;;;-2.90;100.00;95957.56;6093273;19;20522;-71
2024/01/18 02:10:37;;;;;;;28.58;13.07;;;;;;;-2.86;100.00;95963.84;6093296;19;20006;-71
2024/01/18 02:12:38;;;;;;;28.75;14.02;;;;;;;-2.92;100.00;95967.94;6094858;19;20013;-72
2024/01/18 02:14:38;;;;;;;29.48;14.15;;;;;;;-2.91;100.00;95959.47;6093517;19;20082;-72
2024/01/18 02:16:39;;;;;;;27.98;14.10;;;;;;;-2.95;100.00;95965.97;6093212;19;20010;-72
2024/01/18 02:18:39;;;;;;;28.05;13.07;;;;;;;-2.96;100.00;95967.88;6093874;19;20325;-71
2024/01/18 02:20:40;;;;;;;26.40;13.15;;;;;;;-2.97;100.00;95969.03;6093892;19;20014;-72
2024/01/18 02:22:44;;;;;;;25.40;12.60;;;;;;;-2.99;100.00;95970.50;6092691;19;20096;-71
2024/01/18 02:24:50;;;;;;;23.95;12.43;;;;;;;-3.00;100.00;95971.63;6092567;19;20018;-71
2024/01/18 02:26:50;;;;;;;26.08;13.85;;;;;;;-3.05;100.00;95961.88;6092657;19;20003;-72
2024/01/18 02:28:56;;;;;;;24.08;13.23;;;;;;;-3.00;100.00;95958.09;6093759;19;20049;-72
2024/01/18 02:30:56;;;;;;;26.90;13.43;;;;;;;-3.02;100.00;95961.16;6093807;19;20007;-72
2024/01/18 02:32:56;;;;;;;28.02;14.40;;;;;;;-3.01;100.00;95960.03;6093404;19;20007;-72
2024/01/18 02:34:57;;;;;;;24.25;12.77;;;;;;;-3.01;100.00;95970.06;6093010;19;20505;-72
2024/01/18 02:36:57;;;;;;;28.33;15.35;;;;;;;-3.01;100.00;95960.03;6093743;19;20621;-71
2024/01/18 02:38:58;;;;;;;28.42;14.80;;;;;;;-3.07;100.00;95972.25;6093720;19;20002;-72
2024/01/18 02:40:58;;;;;;;27.40;13.38;;;;;;;-3.08;100.00;95978.00;6091408;19;19999;-72
2024/01/18 02:42:59;;;;;;;28.88;14.43;;;;;;;-3.07;100.00;95980.34;6092348;19;20021;-72
2024/01/18 02:45:02;;;;;;;31.38;14.70;;;;;;;-3.09;100.00;95984.56;6091843;19;20014;-72
2024/01/18 02:47:02;;;;;;;31.00;13.68;;;;;;;-3.07;100.00;95977.66;6092308;19;20007;-72
2024/01/18 02:49:03;;;;;;;30.85;14.38;;;;;;;-3.06;100.00;95981.94;6103349;19;20003;-72
2024/01/18 02:51:04;;;;;;;30.05;14.45;;;;;;;-3.06;100.00;95976.53;6107612;19;20221;-72
2024/01/18 02:53:04;;;;;;;26.77;12.43;;;;;;;-3.04;100.00;95973.47;6107597;19;20011;-72
2024/01/18 02:55:06;;;;;;;25.65;12.98;;;;;;;-3.03;100.00;95969.63;6105752;19;20002;-71
2024/01/18 02:57:07;;;;;;;24.00;11.85;;;;;;;-3.03;100.00;95959.59;6104598;19;20006;-71
2024/01/18 02:59:07;;;;;;;22.70;11.98;;;;;;;-3.04;100.00;95949.91;6107157;19;20003;-72
2024/01/18 03:01:09;;;;;;;24.52;11.95;;;;;;;-3.05;100.00;95959.16;6104040;19;20469;-72
2024/01/18 03:03:09;;;;;;;24.63;11.73;;;;;;;-3.03;100.00;95948.78;6104353;19;20006;-72
2024/01/18 03:05:10;;;;;;;27.67;11.85;;;;;;;-3.05;100.00;95951.06;6103766;19;20026;-72
2024/01/18 03:07:10;;;;;;;18.67;10.02;;;;;;;-3.07;100.00;95945.19;6106925;19;20006;-72
2024/01/18 03:09:12;;;;;;;21.65;11.02;;;;;;;-3.11;100.00;95945.13;6104330;19;20469;-72
2024/01/18 03:11:12;;;;;;;19.83;11.40;;;;;;;-3.11;100.00;95939.72;6105065;19;20353;-71
2024/01/18 03:13:13;;;;;;;18.15;9.60;;;;;;;-3.08;100.00;95964.47;6106032;19;20010;-71
2024/01/18 03:15:13;;;;;;;22.77;10.90;;;;;;;-3.10;100.00;95962.13;6104470;19;20031;-72
2024/01/18 03:17:14;;;;;;;32.60;11.70;;;;;;;-3.11;100.00;95971.38;6105930;19;20006;-72
2024/01/18 03:19:14;;;;;;;24.60;11.18;;;;;;;-3.09;100.00;95971.81;6105777;19;20331;-72
2024/01/18 03:21:14;;;;;;;22.25;9.82;;;;;;;-3.11;100.00;95983.00;6104775;19;20018;-72
2024/01/18 03:23:16;;;;;;;23.52;10.75;;;;;;;-3.13;100.00;95992.59;6109649;19;20003;-72
2024/01/18 03:25:16;;;;;;;27.13;10.65;;;;;;;-3.10;100.00;95975.66;6109019;19;20045;-72
2024/01/18 03:27:18;;;;;;;22.33;10.57;;;;;;;-3.08;100.00;95978.78;6111798;19;20062;-72
2024/01/18 03:29:19;;;;;;;;;;;;;;;-3.04;100.00;95979.69;6109392;19;20002;-72
2024/01/18 03:31:19;;;;;;;19.92;9.02;;;;;;;-3.05;100.00;95986.22;6111068;19;19910;-72
2024/01/18 03:33:19;;;;;;;21.20;9.75;;;;;;;-3.02;100.00;95982.81;6111118;19;20003;-72
2024/01/18 03:35:20;;;;;;;25.73;11.18;;;;;;;-3.05;100.00;95988.16;6110048;19;20006;-72
2024/01/18 03:37:20;;;;;;;24.25;11.35;;;;;;;-3.05;100.00;95991.63;6110309;19;20540;-72
2024/01/18 03:39:20;;;;;;;23.45;10.82;;;;;;;-3.09;100.00;95987.25;6111099;19;20338;-72
2024/01/18 03:41:20;;;;;;;23.13;11.48;;;;;;;-3.12;100.00;95986.84;6110452;19;20471;-72
2024/01/18 03:43:21;;;;;;;24.23;11.57;;;;;;;-3.11;100.00;95998.44;6111564;19;20543;-72
2024/01/18 03:45:21;;;;;;;23.92;12.00;;;;;;;-3.15;100.00;95992.13;6109551;19;20011;-72
2024/01/18 03:47:21;;;;;;;27.30;13.00;;;;;;;-3.13;100.00;95992.59;6111426;19;20082;-72
2024/01/18 03:49:22;;;;;;;25.58;12.60;;;;;;;-3.15;100.00;96005.66;6111703;19;20006;-72
2024/01/18 03:51:22;;;;;;;28.63;13.32;;;;;;;-3.18;100.00;96000.97;6110804;19;20025;-72
2024/01/18 03:53:22;;;;;;;26.30;14.15;;;;;;;-3.19;100.00;96000.19;6110461;19;20013;-72
2024/01/18 03:55:23;;;;;;;29.77;14.65;;;;;;;-3.15;100.00;96002.97;6110078;19;20003;-72
2024/01/18 03:57:23;;;;;;;27.63;14.43;;;;;;;-3.16;100.00;96006.81;6111001;19;20006;-72
2024/01/18 03:59:23;;;;;;;26.17;13.65;;;;;;;-3.15;100.00;96008.38;6112295;19;20018;-72
2024/01/18 04:01:24;;;;;;;25.20;11.85;;;;;;;-3.18;100.00;95998.25;6110644;19;20014;-72
2024/01/18 04:03:25;;;;;;;26.25;11.65;;;;;;;-3.19;100.00;95989.38;6111482;19;20795;-72
2024/01/18 04:05:25;;;;;;;28.33;14.57;;;;;;;-3.20;100.00;95995.91;6109485;19;20006;-72
2024/01/18 04:07:25;;;;;;;33.45;13.90;;;;;;;-3.19;100.00;96002.88;6111090;19;20017;-72
2024/01/18 04:09:26;;;;;;;53.50;20.42;;;;;;;-3.19;100.00;96002.09;6111143;19;20026;-72
2024/01/18 04:11:26;;;;;;;45.72;19.27;;;;;;;-3.20;100.00;96020.25;6110718;19;20019;-72
2024/01/18 04:13:27;;;;;;;37.45;17.23;;;;;;;-3.20;100.00;96020.25;6111657;19;20340;-72
2024/01/18 04:15:27;;;;;;;29.85;13.90;;;;;;;-3.19;100.00;96027.22;6109899;19;20033;-72
2024/01/18 04:17:27;;;;;;;26.65;13.82;;;;;;;-3.15;100.00;96032.72;6109815;19;19999;-72
2024/01/18 04:19:28;;;;;;;30.60;14.65;;;;;;;-3.17;100.00;96041.19;6111403;19;20002;-72
2024/01/18 04:21:28;;;;;;;41.38;21.33;;;;;;;-3.19;100.00;96045.38;6109671;19;19999;-72
2024/01/18 04:23:29;;;;;;;32.90;16.48;;;;;;;-3.24;100.00;96051.03;6110378;19;20006;-72
2024/01/18 04:25:29;;;;;;;28.10;13.77;;;;;;;-3.33;100.00;96050.41;6109482;19;20510;-72
2024/01/18 04:27:29;;;;;;;45.05;20.23;;;;;;;-3.32;100.00;96058.16;6110518;19;20032;-72
2024/01/18 04:29:30;;;;;;;23.85;11.73;;;;;;;-3.33;100.00;96056.59;6111841;19;20006;-72
2024/01/18 04:31:30;;;;;;;29.33;13.15;;;;;;;-3.35;100.00;96064.28;6110307;19;20022;-72
2024/01/18 04:33:30;;;;;;;28.08;13.13;;;;;;;-3.35;100.00;96077.00;6111826;19;20381;-72
2024/01/18 04:35:30;;;;;;;24.88;11.00;;;;;;;-3.34;100.00;96075.88;6108625;19;20409;-72
2024/01/18 04:37:31;;;;;;;25.58;11.10;;;;;;;-3.40;100.00;96073.41;6110323;19;20013;-72
2024/01/18 04:39:31;;;;;;;22.88;11.55;;;;;;;-3.35;100.00;96077.00;6110349;19;20006;-72
2024/01/18 04:41:32;;;;;;;23.10;11.45;;;;;;;-3.37;100.00;96063.06;6110951;19;20004;-72
2024/01/18 04:43:33;;;;;;;21.42;12.02;;;;;;;-3.40;100.00;96051.78;6110461;19;20062;-72
2024/01/18 04:45:33;;;;;;;23.20;11.57;;;;;;;-3.40;100.00;96051.78;6109736;19;20032;-72
2024/01/18 04:47:34;;;;;;;28.17;12.27;;;;;;;-3.41;100.00;96044.03;6110121;19;20006;-72
2024/01/18 04:49:34;;;;;;;24.60;12.13;;;;;;;-3.42;100.00;96035.13;6110560;19;20517;-71
2024/01/18 04:51:34;;;;;;;25.38;11.95;;;;;;;-3.38;100.00;96029.06;6109910;19;20360;-71
2024/01/18 04:53:35;;;;;;;22.10;11.30;;;;;;;-3.38;100.00;96040.66;6110987;19;20013;-72
2024/01/18 04:55:35;;;;;;;25.63;11.35;;;;;;;-3.38;100.00;96043.34;6106591;19;20027;-72
2024/01/18 04:57:35;;;;;;;24.88;12.10;;;;;;;-3.36;100.00;96056.53;6110405;19;20371;-72
2024/01/18 04:59:36;;;;;;;23.00;11.57;;;;;;;-3.37;100.00;96057.66;6110502;19;20482;-72
2024/01/18 05:01:39;;;;;;;26.90;12.57;;;;;;;-3.35;100.00;96068.91;6107467;19;19999;-72
2024/01/18 05:03:39;;;;;;;24.17;11.27;;;;;;;-3.36;100.00;96075.44;6108086;19;20471;-72
2024/01/18 05:05:41;;;;;;;26.40;13.02;;;;;;;-3.36;100.00;96084.34;6107667;19;19998;-72
2024/01/18 05:07:41;;;;;;;22.17;10.90;;;;;;;-3.37;100.00;96092.81;6108216;19;20011;-72
2024/01/18 05:09:42;;;;;;;23.67;12.50;;;;;;;-3.34;100.00;96086.69;6109448;19;20481;-72
2024/01/18 05:11:42;;;;;;;22.95;11.15;;;;;;;-3.36;100.00;96078.94;6109369;19;20490;-72
2024/01/18 05:13:43;;;;;;;22.80;12.40;;;;;;;-3.39;100.00;96085.03;6109805;19;20082;-72
2024/01/18 05:15:43;;;;;;;26.63;11.80;;;;;;;-3.40;100.00;96107.78;6109008;19;20025;-72
2024/01/18 05:17:46;;;;;;;26.73;12.48;;;;;;;-3.41;100.00;96117.03;6108228;19;20107;-72
2024/01/18 05:19:47;;;;;;;31.90;12.95;;;;;;;-3.46;100.00;96118.06;6109192;19;20612;-72
2024/01/18 05:21:48;;;;;;;24.75;11.65;;;;;;;-3.42;100.00;96110.06;6108772;19;20031;-72
2024/01/18 05:23:49;;;;;;;24.55;12.00;;;;;;;-3.45;100.00;96099.94;6109538;19;19998;-72
2024/01/18 05:25:49;;;;;;;24.77;12.40;;;;;;;-3.48;100.00;96106.00;6108134;19;20011;-72
2024/01/18 05:27:50;;;;;;;25.13;12.15;;;;;;;-3.52;100.00;96103.22;6108549;19;20010;-72
2024/01/18 05:29:51;;;;;;;25.02;11.55;;;;;;;-3.52;100.00;96105.94;6108997;19;20467;-72
2024/01/18 05:31:51;;;;;;;26.00;12.70;;;;;;;-3.58;100.00;96096.50;6108211;19;20503;-72
2024/01/18 05:33:52;;;;;;;21.42;11.65;;;;;;;-3.60;100.00;96085.25;6108695;19;20025;-72
2024/01/18 05:35:52;;;;;;;23.58;12.10;;;;;;;-3.60;100.00;96063.63;6107610;19;20019;-72
2024/01/18 05:37:53;;;;;;;29.80;13.20;;;;;;;-3.58;100.00;96047.84;6107901;19;20037;-72
2024/01/18 05:39:53;;;;;;;20.60;10.63;;;;;;;-3.56;100.00;96026.66;6108344;19;20009;-72
2024/01/18 05:41:53;;;;;;;23.17;12.93;;;;;;;-3.58;100.00;96042.44;6109317;19;20011;-72
2024/01/18 05:43:53;;;;;;;25.10;12.55;;;;;;;-3.58;100.00;96055.94;6109576;19;20007;-72
2024/01/18 05:45:54;;;;;;;26.60;14.18;;;;;;;-3.58;100.00;96072.16;6105302;19;20389;-71
2024/01/18 05:47:55;;;;;;;25.60;11.65;;;;;;;-3.59;100.00;96081.41;6095705;19;20505;-72
2024/01/18 05:49:55;;;;;;;21.65;11.13;;;;;;;-3.59;100.00;96078.69;6108429;19;20015;-72
2024/01/18 05:51:55;;;;;;;27.15;12.32;;;;;;;-3.57;100.00;96087.25;6108935;19;20003;-71
2024/01/18 05:53:56;;;;;;;23.67;11.77;;;;;;;-3.58;100.00;96095.69;6108796;19;20024;-72
2024/01/18 05:55:59;;;;;;;24.90;12.82;;;;;;;-3.56;100.00;96106.94;6107395;19;20015;-72
2024/01/18 05:58:00;;;;;;;22.50;12.30;;;;;;;-3.57;100.00;96105.38;6107309;19;19999;-71
2024/01/18 06:00:00;;;;;;;28.55;13.23;;;;;;;-3.57;100.00;96122.38;6108981;19;20001;-71
2024/01/18 06:02:01;;;;;;;25.05;12.30;;;;;;;-3.57;100.00;96133.19;6107663;19;20006;-71
2024/01/18 06:04:01;;;;;;;25.90;14.13;;;;;;;-3.59;100.00;96129.28;6108011;19;20435;-71
2024/01/18 06:06:02;;;;;;;23.02;11.82;;;;;;;-3.60;100.00;96131.19;6104992;19;20623;-72
2024/01/18 06:08:02;;;;;;;26.35;13.50;;;;;;;-3.59;100.00;96127.34;6106303;19;20062;-71
2024/01/18 06:10:04;;;;;;;28.33;12.50;;;;;;;-3.59;100.00;96118.47;6107837;19;20012;-71
2024/01/18 06:12:04;;;;;;;23.45;12.90;;;;;;;-3.56;100.00;96101.53;6108259;19;19994;-71
2024/01/18 06:14:04;;;;;;;25.90;13.32;;;;;;;-3.53;100.00;96109.78;6104387;19;20384;-72
2024/01/18 06:16:09;;;;;;;29.90;15.57;;;;;;;-3.50;100.00;96119.88;6108631;19;20030;-72
2024/01/18 06:18:10;;;;;;;24.75;12.05;;;;;;;-3.48;100.00;96117.63;6104823;19;20063;-72
2024/01/18 06:20:14;;;;;;;25.27;12.70;;;;;;;-3.45;100.00;96125.06;6107687;19;20566;-72
2024/01/18 06:22:15;;;;;;;26.95;13.95;;;;;;;-3.48;100.00;96114.13;6107285;19;20010;-71
2024/01/18 06:24:15;;;;;;;26.80;14.13;;;;;;;-3.50;100.00;96121.81;6106951;19;20391;-71
2024/01/18 06:26:16;;;;;;;32.22;15.05;;;;;;;-3.48;100.00;96130.34;6107066;19;20364;-71
2024/01/18 06:28:17;;;;;;;31.83;15.00;;;;;;;-3.52;100.00;96132.19;6105844;19;20034;-71
2024/01/18 06:30:18;;;;;;;30.00;14.55;;;;;;;-3.58;100.00;96128.91;6100546;19;19995;-71
2024/01/18 06:32:18;;;;;;;26.48;13.18;;;;;;;-3.60;100.00;96125.00;6099711;19;20010;-71
2024/01/18 06:34:18;;;;;;;29.27;15.05;;;;;;;-3.60;100.00;96117.69;6102531;19;20007;-71
2024/01/18 06:36:19;;;;;;;29.48;15.13;;;;;;;-3.61;100.00;96123.44;6104323;19;20581;-71
2024/01/18 06:38:22;;;;;;;26.98;13.30;;;;;;;-3.59;100.00;96127.34;6103785;19;20003;-71
2024/01/18 06:40:22;;;;;;;32.28;15.02;;;;;;;-3.62;100.00;96133.47;6107426;19;20421;-71
2024/01/18 06:42:23;;;;;;;31.27;16.13;;;;;;;-3.60;100.00;96152.03;6106715;19;20006;-71
2024/01/18 06:44:23;;;;;;;32.10;15.10;;;;;;;-3.65;100.00;96155.75;6103955;19;20018;-71
2024/01/18 06:46:23;;;;;;;32.20;15.70;;;;;;;-3.65;100.00;96161.16;6106701;19;20019;-71
2024/01/18 06:48:24;;;;;;;37.70;17.23;;;;;;;-3.64;100.00;96160.03;6096059;19;20023;-71
2024/01/18 06:50:25;;;;;;;38.45;18.88;;;;;;;-3.64;100.00;96160.03;6091424;19;20102;-71
2024/01/18 06:52:25;;;;;;;34.50;17.25;;;;;;;-3.66;100.00;96156.88;6091878;19;20010;-71
2024/01/18 06:54:26;;;;;;;33.22;16.90;;;;;;;-3.68;100.00;96159.13;6091537;19;21043;-71
2024/01/18 06:56:27;;;;;;;33.60;16.00;;;;;;;-3.67;100.00;96160.72;6093273;19;20014;-71
2024/01/18 06:58:27;;;;;;;32.28;16.13;;;;;;;-3.68;100.00;96167.25;6097362;19;20087;-71
2024/01/18 07:00:27;;;;;;;37.22;16.88;;;;;;;-3.68;100.00;96168.03;6096886;19;20025;-71
2024/01/18 07:02:28;;;;;;;33.78;15.80;;;;;;;-3.63;100.00;96171.66;6097454;19;20045;-72
2024/01/18 07:04:28;;;;;;;29.17;15.63;;;;;;;-3.65;100.00;96184.69;6096951;19;20747;-72
2024/01/18 07:06:29;;;;;;;32.40;16.70;;;;;;;-3.66;100.00;96181.19;6097912;19;20425;-71
2024/01/18 07:08:30;;;;;;;33.72;15.77;;;;;;;-3.63;100.00;96175.13;6098724;19;20451;-71
2024/01/18 07:10:30;;;;;;;32.85;15.57;;;;;;;-3.67;100.00;96179.63;6097332;19;20262;-71
2024/01/18 07:12:32;;;;;;;32.90;15.70;;;;;;;-3.74;100.00;96184.81;6097524;19;20011;-71
2024/01/18 07:14:32;;;;;;;33.72;16.27;;;;;;;-3.75;100.00;96192.13;6096237;19;20006;-71
2024/01/18 07:16:33;;;;;;;29.40;14.55;;;;;;;-3.78;100.00;96184.72;6095954;19;20102;-71
2024/01/18 07:18:33;;;;;;;27.80;14.80;;;;;;;-3.76;100.00;96195.19;6096664;19;20198;-72
2024/01/18 07:20:34;;;;;;;26.35;14.32;;;;;;;-3.79;100.00;96191.25;6096023;19;19998;-71
2024/01/18 07:22:34;;;;;;;30.95;15.20;;;;;;;-3.80;100.00;96191.59;6098120;19;20010;-71
2024/01/18 07:24:34;;;;;;;32.28;15.20;;;;;;;-3.78;100.00;96189.34;6096316;19;20007;-71
2024/01/18 07:26:35;;;;;;;34.28;17.23;;;;;;;-3.77;100.00;96180.91;6097978;19;20323;-71
2024/01/18 07:28:35;;;;;;;36.70;16.35;;;;;;;-3.77;100.00;96183.59;6097823;19;20231;-72
2024/01/18 07:30:36;;;;;;;34.05;16.65;;;;;;;-3.74;100.00;96192.94;6096237;19;20006;-72
2024/01/18 07:32:40;;;;;;;30.85;15.38;;;;;;;-3.69;100.00;96190.78;6095934;19;20307;-71
2024/01/18 07:34:40;;;;;;;32.60;16.23;;;;;;;-3.71;100.00;96197.66;6094319;19;20007;-71
2024/01/18 07:36:41;;;;;;;28.83;15.38;;;;;;;-3.65;100.00;96209.78;6096783;19;20007;-71
2024/01/18 07:38:41;;;;;;;35.75;16.00;;;;;;;-3.63;100.00;96202.16;6096116;19;20011;-71
2024/01/18 07:40:41;;;;;;;34.75;17.08;;;;;;;-3.59;100.00;96203.03;6096767;19;20414;-71
2024/01/18 07:42:43;;;;;;;34.90;17.48;;;;;;;-3.61;100.00;96209.91;6097779;19;20011;-72
2024/01/18 07:44:46;;;;;;;34.10;16.58;;;;;;;-3.62;100.00;96211.84;6096770;19;20459;-71
2024/01/18 07:46:46;;;;;;;;;;;;;;;-3.61;100.00;96209.91;6100296;19;20560;-71
2024/01/18 07:48:46;;;;;;;26.73;12.15;;;;;;;-3.62;100.00;96208.34;6107222;19;19911;-72
2024/01/18 07:50:46;;;;;;;25.50;13.63;;;;;;;-3.58;100.00;96211.94;6113398;19;20014;-72
2024/01/18 07:52:47;;;;;;;30.58;14.43;;;;;;;-3.58;100.00;96220.81;6112422;19;20021;-71
2024/01/18 07:54:49;;;;;;;29.30;14.02;;;;;;;-3.54;100.00;96227.13;6111338;19;20339;-71
2024/01/18 07:56:49;;;;;;;31.20;15.93;;;;;;;-3.49;100.00;96234.22;6112484;19;20102;-71
2024/01/18 07:58:50;;;;;;;20.95;10.43;;;;;;;-3.46;100.00;96242.44;6112759;19;20043;-71
2024/01/18 08:00:50;;;;;;;18.75;9.88;;;;;;;-3.42;100.00;96246.03;6109967;19;20332;-71
2024/01/18 08:02:51;;;;;;;16.40;8.35;;;;;;;-3.44;100.00;96242.09;6112340;19;20397;-71
2024/01/18 08:04:51;;;;;;;15.00;6.55;;;;;;;-3.42;100.00;96240.63;6111693;19;20006;-71
2024/01/18 08:06:52;;;;;;;13.48;7.15;;;;;;;-3.45;100.00;96241.31;6112581;19;20038;-71
2024/01/18 08:08:52;;;;;;;10.68;5.85;;;;;;;-3.46;100.00;96247.84;6110273;19;20003;-71
2024/01/18 08:10:53;;;;;;;10.90;7.18;;;;;;;-3.48;100.00;96246.59;6112986;19;20367;-73
2024/01/18 08:12:53;;;;;;;8.30;5.53;;;;;;;-3.41;100.00;96246.81;6112034;19;20006;-72
2024/01/18 08:14:54;;;;;;;9.93;5.32;;;;;;;-3.41;100.00;96255.69;6110242;19;20104;-72
2024/01/18 08:16:55;;;;;;;9.35;4.90;;;;;;;-3.42;100.00;96256.03;6110177;19;20014;-72
2024/01/18 08:18:58;;;;;;;10.98;6.70;;;;;;;-3.41;100.00;96266.50;6111945;19;20032;-71
2024/01/18 08:20:58;;;;;;;12.38;6.60;;;;;;;-3.38;100.00;96267.78;6111082;19;20471;-71
2024/01/18 08:22:59;;;;;;;10.07;5.63;;;;;;;-3.36;100.00;96267.41;6112076;19;20006;-71
2024/01/18 08:24:59;;;;;;;8.43;5.53;;;;;;;-3.33;100.00;96269.44;6110127;19;20487;-71
2024/01/18 08:26:59;;;;;;;12.55;6.47;;;;;;;-3.30;100.00;96272.25;6110906;19;20014;-71
2024/01/18 08:29:00;;;;;;;12.15;6.35;;;;;;;-3.24;100.00;96280.91;6111384;19;20007;-71
2024/01/18 08:31:00;;;;;;;13.90;6.32;;;;;;;-3.20;100.00;96285.31;6112018;19;20006;-71
2024/01/18 08:33:00;;;;;;;12.63;7.28;;;;;;;-3.18;100.00;96287.66;6110125;19;20038;-71
2024/01/18 08:35:01;;;;;;;12.18;6.55;;;;;;;-3.15;100.00;96293.16;6109883;19;20010;-71
2024/01/18 08:37:03;;;;;;;15.02;7.40;;;;;;;-3.15;100.00;96289.66;6110437;19;20006;-71
2024/01/18 08:39:03;;;;;;;18.27;8.03;;;;;;;-3.15;100.00;96287.75;6111532;19;20583;-71
2024/01/18 08:41:04;;;;;;;14.80;8.05;;;;;;;-3.15;100.00;96293.16;6110020;19;20244;-71
2024/01/18 08:43:04;;;;;;;15.82;7.95;;;;;;;-3.15;100.00;96292.38;6110702;19;20338;-71
2024/01/18 08:45:05;;;;;;;14.70;7.65;;;;;;;-3.13;100.00;96293.63;6110153;19;20010;-71
2024/01/18 08:47:05;;;;;;;16.70;9.48;;;;;;;-3.12;100.00;96292.50;6111787;19;20475;-71
2024/01/18 08:49:07;;;;;;;37.55;17.95;;;;;;;-3.25;100.00;96299.03;6110963;19;20006;-71
2024/01/18 08:51:13;;;;;;;59.25;25.83;;;;;;;-3.28;100.00;96304.38;6111386;19;20458;-71
2024/01/18 08:53:13;;;;;;;39.03;20.60;;;;;;;-3.32;100.00;96300.75;6108208;19;20339;-72
2024/01/18 08:55:13;;;;;;;36.78;18.85;;;;;;;-3.41;100.00;96309.00;6110846;19;20099;-71
2024/01/18 08:57:14;;;;;;;34.28;17.38;;;;;;;-3.41;100.00;96303.59;6111688;19;20006;-72
2024/01/18 08:59:14;;;;;;;33.83;17.15;;;;;;;-3.47;100.00;96303.03;6109221;19;20007;-72
2024/01/18 09:01:15;;;;;;;35.60;19.17;;;;;;;-3.44;100.00;96313.16;6110092;19;20012;-72
2024/01/18 09:03:15;;;;;;;39.22;18.95;;;;;;;-3.42;100.00;96315.53;6110240;19;20416;-71
2024/01/18 09:05:16;;;;;;;37.50;18.20;;;;;;;-3.31;100.00;96313.13;6108670;19;20007;-71
2024/01/18 09:07:16;;;;;;;36.00;17.75;;;;;;;-3.19;100.00;96323.94;6111237;19;20002;-71
2024/01/18 09:09:16;;;;;;;32.70;17.90;;;;;;;-3.21;100.00;96310.78;6107616;19;19999;-71
2024/01/18 09:11:16;;;;;;;41.45;20.60;;;;;;;-3.12;100.00;96310.66;6110639;19;19999;-71